createdAt,value
2019-03-26T00:02:21.934Z,2.23
2019-03-26T00:04:53.703Z,2.28
2019-03-26T00:07:42.460Z,2.33
2019-03-26T00:10:12.397Z,2.33
2019-03-26T00:13:20.004Z,2.35
2019-03-26T00:15:50.861Z,2.39
2019-03-26T00:21:28.561Z,2.46
2019-03-26T00:26:47.548Z,2.47
2019-03-26T00:29:36.564Z,2.48
2019-03-26T00:32:06.680Z,2.48
2019-03-26T00:34:37.108Z,2.48
2019-03-26T00:37:09.586Z,2.45
2019-03-26T00:39:39.716Z,2.40
2019-03-26T00:42:28.494Z,2.39
2019-03-26T00:45:09.311Z,2.45
2019-03-26T00:47:40.169Z,2.45
2019-03-26T00:50:10.222Z,2.44
2019-03-26T00:52:40.366Z,2.40
2019-03-26T00:55:21.906Z,2.43
2019-03-26T00:57:42.564Z,2.39
2019-03-26T01:00:12.991Z,2.44
2019-03-26T01:02:43.028Z,2.47
2019-03-26T01:05:13.261Z,2.47
2019-03-26T01:07:43.217Z,2.51
2019-03-26T01:10:53.202Z,2.55
2019-03-26T01:13:34.146Z,2.57
2019-03-26T01:16:04.942Z,2.57
2019-03-26T01:18:53.665Z,2.61
2019-03-26T01:21:23.676Z,2.61
2019-03-26T01:23:53.632Z,2.59
2019-03-26T01:26:23.604Z,2.59
2019-03-26T01:28:53.960Z,2.67
2019-03-26T01:31:23.901Z,2.67
2019-03-26T01:33:53.870Z,2.68
2019-03-26T01:36:42.715Z,2.68
2019-03-26T01:42:07.545Z,2.68
2019-03-26T01:44:37.484Z,2.64
2019-03-26T01:47:08.235Z,2.67
2019-03-26T01:49:49.019Z,2.70
2019-03-26T01:55:21.155Z,2.69
2019-03-26T01:58:10.193Z,2.66
2019-03-26T02:00:51.698Z,2.60
2019-03-26T02:03:32.722Z,2.60
2019-03-26T02:06:03.452Z,2.57
2019-03-26T02:08:33.416Z,2.47
2019-03-26T02:11:03.555Z,2.47
2019-03-26T02:13:33.578Z,2.43
2019-03-26T02:16:08.911Z,2.40
2019-03-26T02:21:33.671Z,2.28
2019-03-26T02:24:04.030Z,2.31
2019-03-26T02:26:33.962Z,2.24
2019-03-26T02:29:08.061Z,2.28
2019-03-26T02:31:56.933Z,2.27
2019-03-26T02:34:26.864Z,2.27
2019-03-26T02:36:56.810Z,2.25
2019-03-26T02:39:26.834Z,2.25
2019-03-26T02:41:56.827Z,2.19
2019-03-26T02:44:26.829Z,2.19
2019-03-26T02:46:56.898Z,2.25
2019-03-26T02:49:31.418Z,2.25
2019-03-26T02:52:01.431Z,2.26
2019-03-26T02:54:31.405Z,2.26
2019-03-26T02:57:01.367Z,2.25
2019-03-26T02:59:50.216Z,2.25
2019-03-26T03:02:39.118Z,2.23
2019-03-26T03:05:10.189Z,2.23
2019-03-26T03:07:40.142Z,2.21
2019-03-26T03:10:18.733Z,2.17
2019-03-26T03:12:48.777Z,2.13
2019-03-26T03:15:19.038Z,2.11
2019-03-26T03:20:42.715Z,1.99
2019-03-26T03:23:13.115Z,2.01
2019-03-26T03:25:43.196Z,2.01
2019-03-26T03:28:13.349Z,1.93
2019-03-26T03:31:02.139Z,1.90
2019-03-26T03:33:32.130Z,1.90
2019-03-26T03:36:02.054Z,1.88
2019-03-26T03:38:50.909Z,1.82
2019-03-26T03:41:31.398Z,1.83
2019-03-26T03:44:01.420Z,1.81
2019-03-26T03:46:31.993Z,1.78
2019-03-26T03:49:41.215Z,1.75
2019-03-26T03:52:12.946Z,1.75
2019-03-26T03:55:03.079Z,1.73
2019-03-26T04:06:22.679Z,1.94
2019-03-26T04:09:03.279Z,1.99
2019-03-26T04:14:15.011Z,2.09
2019-03-26T04:16:47.053Z,2.19
2019-03-26T04:19:17.077Z,2.22
2019-03-26T04:21:47.114Z,2.22
2019-03-26T04:24:19.005Z,2.23
2019-03-26T04:27:07.722Z,2.29
2019-03-26T04:29:37.724Z,2.38
2019-03-26T04:32:07.652Z,2.38
2019-03-26T04:34:56.355Z,2.45
2019-03-26T04:37:26.319Z,2.45
2019-03-26T04:40:17.473Z,2.47
2019-03-26T04:43:06.282Z,2.49
2019-03-26T04:45:36.245Z,2.49
2019-03-26T04:48:25.066Z,2.52
2019-03-26T04:50:55.056Z,2.52
2019-03-26T04:53:28.049Z,2.52
2019-03-26T04:55:58.004Z,2.53
2019-03-26T04:58:29.450Z,2.55
2019-03-26T05:00:59.519Z,2.55
2019-03-26T05:03:36.980Z,2.55
2019-03-26T05:06:18.191Z,2.56
2019-03-26T05:08:48.284Z,2.57
2019-03-26T05:11:20.435Z,2.53
2019-03-26T05:14:09.383Z,2.62
2019-03-26T05:19:28.435Z,2.72
2019-03-26T05:21:58.427Z,2.72
2019-03-26T05:24:28.827Z,2.75
2019-03-26T05:26:58.794Z,2.77
2019-03-26T05:29:49.239Z,2.84
2019-03-26T05:32:19.268Z,2.89
2019-03-26T05:34:49.216Z,2.96
2019-03-26T05:37:19.125Z,2.96
2019-03-26T05:39:49.126Z,3.01
2019-03-26T05:42:20.828Z,3.09
2019-03-26T05:44:54.534Z,3.09
2019-03-26T05:47:24.559Z,3.10
2019-03-26T05:49:54.476Z,3.14
2019-03-26T05:52:24.415Z,3.20
2019-03-26T05:54:54.343Z,3.22
2019-03-26T05:57:24.292Z,3.27
2019-03-26T05:59:57.354Z,3.32
2019-03-26T06:02:27.277Z,3.32
2019-03-26T06:04:57.211Z,3.44
2019-03-26T06:07:37.704Z,3.53
2019-03-26T06:13:11.037Z,3.60
2019-03-26T06:21:35.731Z,3.74
2019-03-26T06:27:00.352Z,3.80
2019-03-26T06:29:30.816Z,3.88
2019-03-26T06:32:00.908Z,3.91
2019-03-26T06:34:32.918Z,3.94
2019-03-26T06:37:21.782Z,3.99
2019-03-26T06:40:03.132Z,3.98
2019-03-26T06:42:33.178Z,3.98
2019-03-26T06:45:03.126Z,4.07
2019-03-26T06:47:33.112Z,4.12
2019-03-26T06:50:06.304Z,4.20
2019-03-26T06:52:36.268Z,4.24
2019-03-26T06:55:08.767Z,4.33
2019-03-26T06:57:38.823Z,4.33
2019-03-26T07:00:29.339Z,4.38
2019-03-26T07:03:20.870Z,4.38
2019-03-26T07:06:09.873Z,4.46
2019-03-26T07:08:51.064Z,4.46
2019-03-26T07:11:23.074Z,4.53
2019-03-26T07:13:52.973Z,4.62
2019-03-26T07:16:22.910Z,4.64
2019-03-26T07:18:52.841Z,4.69
2019-03-26T07:21:22.809Z,4.65
2019-03-26T07:23:52.743Z,4.64
2019-03-26T07:26:22.701Z,4.76
2019-03-26T07:32:05.316Z,4.83
2019-03-26T07:34:56.247Z,4.87
2019-03-26T07:37:26.179Z,4.92
2019-03-26T07:39:56.108Z,4.99
2019-03-26T07:42:26.041Z,5.09
2019-03-26T07:45:16.495Z,5.20
2019-03-26T07:47:46.602Z,5.34
2019-03-26T07:50:36.830Z,5.43
2019-03-26T07:56:08.149Z,5.63
2019-03-26T07:58:49.391Z,5.77
2019-03-26T08:01:19.367Z,5.84
2019-03-26T08:03:59.263Z,5.79
2019-03-26T08:06:49.606Z,5.69
2019-03-26T08:12:16.223Z,5.81
2019-03-26T08:14:46.145Z,5.80
2019-03-26T08:17:16.074Z,5.70
2019-03-26T08:19:49.797Z,5.97
2019-03-26T08:22:38.601Z,6.16
2019-03-26T08:25:19.829Z,6.30
2019-03-26T08:27:50.070Z,6.35
2019-03-26T08:30:19.982Z,6.23
2019-03-26T08:32:50.163Z,6.13
2019-03-26T08:35:20.099Z,6.11
2019-03-26T08:37:50.232Z,6.01
2019-03-26T08:42:58.190Z,5.85
2019-03-26T08:45:38.948Z,5.88
2019-03-26T08:48:20.535Z,5.95
2019-03-26T08:51:02.728Z,6.12
2019-03-26T08:53:51.413Z,6.42
2019-03-26T08:56:21.447Z,6.54
2019-03-26T08:58:51.650Z,6.72
2019-03-26T09:01:21.612Z,6.74
2019-03-26T09:03:55.882Z,6.93
2019-03-26T09:06:25.821Z,6.99
2019-03-26T09:08:55.767Z,7.05
2019-03-26T09:11:25.702Z,7.08
2019-03-26T09:13:55.632Z,7.15
2019-03-26T09:16:25.561Z,7.12
2019-03-26T09:18:55.885Z,7.08
2019-03-26T09:21:25.827Z,6.85
2019-03-26T09:23:55.755Z,6.71
2019-03-26T09:26:25.738Z,6.73
2019-03-26T09:28:55.672Z,6.75
2019-03-26T09:31:44.341Z,6.73
2019-03-26T09:37:09.103Z,6.55
2019-03-26T09:39:39.378Z,6.57
2019-03-26T09:42:09.320Z,6.53
2019-03-26T09:44:39.273Z,6.58
2019-03-26T09:47:15.976Z,6.55
2019-03-26T09:49:42.554Z,6.63
2019-03-26T09:54:48.438Z,6.65
2019-03-26T10:03:19.377Z,7.06
2019-03-26T10:05:49.354Z,7.38
2019-03-26T10:08:19.307Z,7.60
2019-03-26T10:11:08.193Z,7.64
2019-03-26T10:13:56.975Z,7.46
2019-03-26T10:16:27.007Z,7.33
2019-03-26T10:18:56.971Z,7.22
2019-03-26T10:21:26.888Z,7.22
2019-03-26T10:23:56.859Z,7.23
2019-03-26T10:26:26.772Z,7.19
2019-03-26T10:28:56.715Z,6.93
2019-03-26T10:31:26.660Z,6.83
2019-03-26T10:33:56.579Z,6.71
2019-03-26T10:36:46.658Z,6.72
2019-03-26T10:39:16.790Z,6.76
2019-03-26T10:41:46.740Z,6.84
2019-03-26T10:46:52.459Z,6.98
2019-03-26T10:49:22.423Z,7.10
2019-03-26T10:51:52.399Z,7.19
2019-03-26T10:54:22.329Z,7.20
2019-03-26T10:57:15.903Z,7.28
2019-03-26T10:59:46.136Z,7.33
2019-03-26T11:02:16.081Z,7.42
2019-03-26T11:04:46.055Z,7.55
2019-03-26T11:07:16.150Z,7.64
2019-03-26T11:09:46.165Z,7.79
2019-03-26T11:12:25.068Z,7.92
2019-03-26T11:14:55.150Z,7.71
2019-03-26T11:17:25.064Z,7.65
2019-03-26T11:20:14.021Z,7.69
2019-03-26T11:22:44.175Z,7.73
2019-03-26T11:25:17.127Z,7.63
2019-03-26T11:27:47.410Z,7.60
2019-03-26T11:30:18.174Z,7.62
2019-03-26T11:32:48.092Z,7.63
2019-03-26T11:35:19.074Z,7.60
2019-03-26T11:37:49.034Z,7.58
2019-03-26T11:40:19.171Z,7.64
2019-03-26T11:42:49.195Z,7.64
2019-03-26T11:45:19.250Z,7.72
2019-03-26T11:47:49.397Z,7.67
2019-03-26T11:50:20.466Z,7.70
2019-03-26T11:52:50.399Z,7.91
2019-03-26T11:55:21.795Z,7.99
2019-03-26T12:00:39.240Z,8.09
2019-03-26T12:03:09.244Z,8.10
2019-03-26T12:08:52.566Z,7.91
2019-03-26T12:11:22.547Z,7.84
2019-03-26T12:13:52.480Z,7.84
2019-03-26T12:16:22.500Z,7.88
2019-03-26T12:18:52.425Z,7.87
2019-03-26T12:21:22.371Z,7.90
2019-03-26T12:23:52.397Z,7.88
2019-03-26T12:26:22.321Z,7.93
2019-03-26T12:28:52.277Z,7.94
2019-03-26T12:31:22.244Z,7.93
2019-03-26T12:37:01.435Z,8.12
2019-03-26T12:39:31.473Z,8.23
2019-03-26T12:42:01.449Z,8.14
2019-03-26T12:44:31.500Z,8.17
2019-03-26T12:47:01.412Z,8.28
2019-03-26T12:49:31.329Z,8.40
2019-03-26T12:52:21.553Z,8.53
2019-03-26T12:55:02.246Z,8.43
2019-03-26T12:57:32.290Z,8.24
2019-03-26T13:00:02.295Z,8.15
2019-03-26T13:02:35.653Z,8.10
2019-03-26T13:05:04.180Z,7.98
2019-03-26T13:07:34.252Z,7.93
2019-03-26T13:10:13.360Z,7.99
2019-03-26T13:12:36.251Z,7.97
2019-03-26T13:15:06.522Z,7.97
2019-03-26T13:17:36.571Z,8.01
2019-03-26T13:23:02.566Z,7.99
2019-03-26T13:25:32.580Z,8.01
2019-03-26T13:28:02.670Z,8.05
2019-03-26T13:30:32.738Z,8.07
2019-03-26T13:33:02.739Z,8.05
2019-03-26T13:35:32.694Z,8.14
2019-03-26T13:40:38.296Z,8.34
2019-03-26T13:45:50.031Z,8.44
2019-03-26T13:48:20.047Z,8.45
2019-03-26T13:51:09.027Z,8.45
2019-03-26T13:53:50.517Z,8.50
2019-03-26T13:56:20.591Z,8.46
2019-03-26T13:58:50.504Z,8.39
2019-03-26T14:01:20.580Z,8.41
2019-03-26T14:03:50.609Z,8.47
2019-03-26T14:06:20.559Z,8.45
2019-03-26T14:08:50.495Z,8.44
2019-03-26T14:11:20.929Z,8.44
2019-03-26T14:16:39.992Z,8.49
2019-03-26T14:19:09.940Z,8.41
2019-03-26T14:21:40.200Z,8.47
2019-03-26T14:24:13.144Z,8.51
2019-03-26T14:26:42.304Z,8.57
2019-03-26T14:29:12.254Z,8.61
2019-03-26T14:31:44.939Z,8.64
2019-03-26T14:34:14.995Z,8.56
2019-03-26T14:36:47.362Z,8.62
2019-03-26T14:39:17.450Z,8.66
2019-03-26T14:42:06.254Z,8.73
2019-03-26T14:44:36.568Z,8.72
2019-03-26T14:47:06.555Z,8.77
2019-03-26T14:49:37.301Z,8.79
2019-03-26T14:52:07.558Z,8.81
2019-03-26T14:54:37.587Z,8.81
2019-03-26T14:57:07.683Z,8.80
2019-03-26T14:59:37.752Z,8.87
2019-03-26T15:02:07.868Z,8.92
2019-03-26T15:04:37.836Z,8.91
2019-03-26T15:07:07.962Z,8.97
2019-03-26T15:09:39.354Z,9.03
2019-03-26T15:12:09.359Z,8.97
2019-03-26T15:14:39.352Z,8.93
2019-03-26T15:17:09.309Z,8.84
2019-03-26T15:22:36.243Z,8.86
2019-03-26T15:25:06.484Z,8.90
2019-03-26T15:27:36.521Z,8.83
2019-03-26T15:30:25.687Z,8.84
2019-03-26T15:33:06.433Z,8.85
2019-03-26T15:35:56.719Z,8.86
2019-03-26T15:38:26.676Z,8.82
2019-03-26T15:40:56.598Z,8.75
2019-03-26T15:43:26.582Z,8.75
2019-03-26T15:45:56.567Z,8.70
2019-03-26T15:48:26.590Z,8.57
2019-03-26T15:50:56.641Z,8.54
2019-03-26T15:53:26.551Z,8.49
2019-03-26T15:56:15.247Z,8.47
2019-03-26T15:58:45.329Z,8.48
2019-03-26T16:01:15.368Z,8.48
2019-03-26T16:03:45.442Z,8.46
2019-03-26T16:06:15.379Z,8.47
2019-03-26T16:08:45.498Z,8.47
2019-03-26T16:11:15.585Z,8.47
2019-03-26T16:13:47.562Z,8.43
2019-03-26T16:16:36.196Z,8.39
2019-03-26T16:19:06.482Z,8.30
2019-03-26T16:21:36.799Z,8.19
2019-03-26T16:24:07.011Z,8.15
2019-03-26T16:26:39.234Z,8.15
2019-03-26T16:29:09.287Z,8.12
2019-03-26T16:31:58.024Z,8.04
2019-03-26T16:39:58.737Z,7.67
2019-03-26T16:42:28.677Z,7.53
2019-03-26T16:44:58.720Z,7.38
2019-03-26T16:47:28.931Z,7.27
2019-03-26T16:49:58.854Z,7.15
2019-03-26T16:52:28.766Z,7.05
2019-03-26T16:54:58.771Z,6.94
2019-03-26T16:57:28.728Z,6.84
2019-03-26T16:59:58.696Z,6.72
2019-03-26T17:02:28.687Z,6.59
2019-03-26T17:04:58.684Z,6.49
2019-03-26T17:07:28.604Z,6.38
2019-03-26T17:09:58.621Z,6.28
2019-03-26T17:12:28.547Z,6.16
2019-03-26T17:14:59.222Z,6.06
2019-03-26T17:20:16.447Z,5.89
2019-03-26T17:22:46.565Z,5.83
2019-03-26T17:25:16.643Z,5.68
2019-03-26T17:27:46.879Z,5.68
2019-03-26T17:30:19.381Z,5.59
2019-03-26T17:32:49.534Z,5.59
2019-03-26T17:35:19.464Z,5.48
2019-03-26T17:37:59.488Z,5.48
2019-03-26T17:40:21.427Z,5.41
2019-03-26T17:42:51.451Z,5.30
2019-03-26T17:45:40.225Z,5.29
2019-03-26T17:48:28.797Z,5.29
2019-03-26T17:50:58.827Z,5.27
2019-03-26T17:53:28.991Z,5.25
2019-03-26T17:56:17.748Z,5.19
2019-03-26T17:59:06.686Z,5.08
2019-03-26T18:01:47.649Z,5.06
2019-03-26T18:04:17.756Z,5.06
2019-03-26T18:06:47.688Z,5.01
2019-03-26T18:12:13.068Z,4.94
2019-03-26T18:14:43.126Z,4.90
2019-03-26T18:17:16.789Z,4.85
2019-03-26T18:19:46.827Z,4.80
2019-03-26T18:22:17.159Z,4.75
2019-03-26T18:24:47.119Z,4.71
2019-03-26T18:27:17.091Z,4.61
2019-03-26T18:30:09.213Z,4.57
2019-03-26T18:32:39.289Z,4.45
2019-03-26T18:35:09.441Z,4.45
2019-03-26T18:37:39.377Z,4.51
2019-03-26T18:40:48.345Z,4.51
2019-03-26T18:43:18.421Z,4.49
2019-03-26T18:45:48.403Z,4.44
2019-03-26T18:48:24.317Z,4.41
2019-03-26T18:50:54.201Z,4.37
2019-03-26T18:53:24.261Z,4.31
2019-03-26T18:56:13.081Z,4.28
2019-03-26T19:01:26.263Z,4.27
2019-03-26T19:04:15.121Z,4.19
2019-03-26T19:07:03.784Z,4.19
2019-03-26T19:09:33.724Z,4.20
2019-03-26T19:12:03.679Z,4.16
2019-03-26T19:14:33.757Z,4.13
2019-03-26T19:17:03.713Z,4.11
2019-03-26T19:19:33.699Z,4.08
2019-03-26T19:22:03.693Z,4.06
2019-03-26T19:27:33.069Z,4.04
2019-03-26T19:32:47.916Z,4.04
2019-03-26T19:35:29.182Z,4.03
2019-03-26T19:40:35.056Z,3.99
2019-03-26T19:43:11.382Z,3.98
2019-03-26T19:45:37.103Z,3.96
2019-03-26T19:48:08.151Z,3.94
2019-03-26T19:50:38.134Z,3.90
2019-03-26T19:53:08.483Z,3.88
2019-03-26T19:55:38.735Z,3.83
2019-03-26T19:58:09.480Z,3.81
2019-03-26T20:00:39.428Z,3.79
2019-03-26T20:03:09.517Z,3.79
2019-03-26T20:05:39.482Z,3.78
2019-03-26T20:08:09.398Z,3.75
2019-03-26T20:10:39.363Z,3.76
2019-03-26T20:13:09.278Z,3.74
2019-03-26T20:15:39.365Z,3.73
2019-03-26T20:18:09.415Z,3.71
2019-03-26T20:20:39.363Z,3.70
2019-03-26T20:23:09.311Z,3.69
2019-03-26T20:25:39.317Z,3.68
2019-03-26T20:28:09.368Z,3.65
2019-03-26T20:30:39.377Z,3.61
2019-03-26T20:33:09.432Z,3.58
2019-03-26T20:35:39.384Z,3.51
2019-03-26T20:40:59.471Z,3.44
2019-03-26T20:43:37.282Z,3.41
2019-03-26T20:46:01.412Z,3.39
2019-03-26T20:48:42.784Z,3.37
2019-03-26T20:51:12.719Z,3.38
2019-03-26T20:53:42.696Z,3.37
2019-03-26T20:56:12.685Z,3.35
2019-03-26T20:59:02.765Z,3.30
2019-03-26T21:01:32.724Z,3.30
2019-03-26T21:06:52.325Z,3.12
2019-03-26T21:09:22.287Z,3.12
2019-03-26T21:11:52.844Z,3.06
2019-03-26T21:14:22.886Z,3.06
2019-03-26T21:16:52.823Z,3.01
2019-03-26T21:19:22.830Z,2.96
2019-03-26T21:21:53.251Z,2.91
2019-03-26T21:24:23.180Z,2.86
2019-03-26T21:26:53.197Z,2.84
2019-03-26T21:32:28.101Z,2.71
2019-03-26T21:34:58.202Z,2.63
2019-03-26T21:37:46.988Z,2.63
2019-03-26T21:40:36.245Z,2.60
2019-03-26T21:43:06.314Z,2.57
2019-03-26T21:45:55.152Z,2.52
2019-03-26T21:48:43.834Z,2.49
2019-03-26T21:51:13.872Z,2.49
2019-03-26T21:54:04.432Z,2.43
2019-03-26T21:56:34.483Z,2.43
2019-03-26T21:59:04.611Z,2.33
2019-03-26T22:01:34.733Z,2.33
2019-03-26T22:07:47.301Z,2.25
2019-03-26T22:15:45.432Z,2.10
2019-03-26T22:18:26.085Z,2.05
2019-03-26T22:21:09.290Z,2.05
2019-03-26T22:23:58.090Z,1.99
2019-03-26T22:26:38.719Z,1.97
2019-03-26T22:29:08.886Z,1.97
2019-03-26T22:31:57.746Z,1.94
2019-03-26T22:34:38.659Z,1.90
2019-03-26T22:37:09.387Z,1.87
2019-03-26T22:39:58.113Z,1.81
2019-03-26T22:42:46.867Z,1.88
2019-03-26T22:45:27.590Z,1.92
2019-03-26T22:47:57.795Z,1.92
2019-03-26T22:50:46.704Z,2.03
2019-03-26T22:53:16.750Z,2.03
2019-03-26T22:55:46.849Z,2.09
2019-03-26T22:58:16.935Z,2.20
2019-03-26T23:01:06.097Z,2.17
2019-03-26T23:06:34.429Z,2.46
2019-03-26T23:09:06.903Z,2.46
2019-03-26T23:11:55.580Z,2.48
2019-03-26T23:14:45.028Z,2.61
2019-03-26T23:17:08.354Z,2.61
2019-03-26T23:19:38.307Z,2.67
2019-03-26T23:22:08.244Z,2.81
2019-03-26T23:24:38.312Z,2.91
2019-03-26T23:27:08.414Z,3.00
2019-03-26T23:29:38.340Z,3.08
2019-03-26T23:32:08.473Z,3.16
2019-03-26T23:37:39.248Z,3.36
2019-03-26T23:43:04.348Z,3.48
2019-03-26T23:45:53.349Z,3.52
2019-03-26T23:48:23.302Z,3.57
2019-03-26T23:50:53.261Z,3.62
2019-03-26T23:53:23.205Z,3.69
2019-03-26T23:55:53.258Z,3.70
2019-03-26T23:58:23.183Z,3.71
